West Point, PA (19486)

10:30 AM EDT on May 27, 2015 (GMT -0400)
North Wales, Pa | | Change Station
CLOSE
Current Station
Personal Weather Station
Location: North Wales, PA
Elevation: 374 ft
Nearby Weather Stations

Elev 374 ft 40.22 °N, 75.28 °W | Updated 6 seconds ago

Overcast
Overcast
76.0 °F
Feels Like 77 °F
N
0.0
Wind Variable Wind from SSE
Gusts 6.0 mph

Today
High -- | Low -- °F
--% Chance of Precip.
Yesterday
High -- | Low -- °F
Precip. -- in
5:36 AM 8:20 PM
Waxing Gibbous, 67% visible
Pressure 30.18 in
Visibility 10.0 miles
Clouds Overcast 1500 ft
Heat Index 77 °F
Dew Point 69 °F
Humidity 79%
Rainfall 0.00 in
Snow Depth Not available.
UV 2 out of 12
Pollen 4.60 out of 12
Air Quality Not available.
Flu Activity Sporadic
METAR KLOM 271420Z AUTO 22006KT 10SM OVC015 25/21 A3018 RMK AO1

More Conditions Fewer Conditions

Pressure 30.18 in
Visibility 10.0 miles
Clouds Overcast 1500 ft
Heat Index 77 °F
Dew Point 69 °F
Humidity 79%
Rainfall 0.00 in
Snow Depth Not available.
UV 2 out of 12
Pollen 4.60 out of 12
Air Quality Not available.
Flu Activity Sporadic
METAR KLOM 271420Z AUTO 22006KT 10SM OVC015 25/21 A3018 RMK AO1

More Conditions Fewer Conditions

10-Day Weather Forecast

Almanac

Astronomy

May. 27, 2015 Rise Set
Actual Time
Civil Twilight
Nautical Twilight
Astronomical Twilight
Moon
Length of Visible Light
Length of Day
Tomorrow will be .
, % of the Moon is Illuminated

Today's Extremes

State Highs State Lows

Community

WunderPhotos

Upload Photos

1,824,684 photos uploaded!

WunderBlogs® & News

Nearby

Air Quality

  Air Quality AQ Index Pollutant
Not available.

Snow Depth

Station Depth Elevation

Earthquake Activity

City Distance Mag. Time & Date
Minimum magnitude displayed is 2.5.

Coastal Water Temperatures

Place Temperature

Stations

Nearby Weather Stations

Station Location Temp. Windchill Dew Point Humidity Wind Precip. Elev Updated Type